Time;durP1;ratioP1;P1;durP2;ratioP2;P2;SDS_P1;SDS_P2;PMS_P1;PMS_P2;Temp;Humidity;BMP_temperature;BMP_pressure;BME280_temperature;BME280_humidity;BME280_pressure;Samples;Min_cycle;Max_cycle;Signal;HPM_P1;HPM_P2
2023/09/30 00:02:05;;;;;;;;;;;12.50;99.90;;;;;;5156417;27;19907;-46
2023/09/30 00:04:30;;;;;;;;;;;12.50;99.90;;;;;;5156875;27;19916;-44
2023/09/30 00:06:56;;;;;;;;;;;12.50;99.90;;;;;;5156663;27;19915;-44
2023/09/30 00:09:21;;;;;;;;;;;12.40;99.90;;;;;;5156860;27;20413;-44
2023/09/30 00:11:47;;;;;;;;;;;12.40;99.90;;;;;;5156773;27;19915;-44
2023/09/30 00:14:12;;;;;;;;;;;12.30;99.90;;;;;;5156719;27;19907;-44
2023/09/30 00:16:38;;;;;;;;;;;12.30;99.90;;;;;;5156687;27;19994;-44
2023/09/30 00:19:03;;;;;;;;;;;12.30;99.90;;;;;;5156762;27;20011;-44
2023/09/30 00:21:29;;;;;;;;;;;12.30;99.90;;;;;;5156657;27;19907;-44
2023/09/30 00:23:55;;;;;;;;;;;12.30;99.90;;;;;;5156576;27;19967;-44
2023/09/30 00:26:21;;;;;;;;;;;12.30;99.90;;;;;;5156580;27;19933;-43
2023/09/30 00:28:47;;;;;;;;;;;12.30;99.90;;;;;;5148642;27;19915;-43
2023/09/30 00:31:13;;;;;;;;;;;12.30;99.90;;;;;;5135761;27;19961;-43
2023/09/30 00:33:38;;;;;;;;;;;12.30;99.90;;;;;;5135357;27;20096;-43
2023/09/30 00:36:10;;;;;;;;;;;12.30;99.90;;;;;;5135567;27;20370;-46
2023/09/30 00:38:36;;;;;;;;;;;12.20;99.90;;;;;;5135484;27;19907;-43
2023/09/30 00:41:02;;;;;;;;;;;12.30;99.90;;;;;;5135576;27;20036;-44
2023/09/30 00:43:27;;;;;;;;;;;12.30;99.90;;;;;;5135147;27;19911;-45
2023/09/30 00:46:05;;;;;;;;;;;12.30;99.90;;;;;;5135533;27;19915;-44
2023/09/30 00:48:32;;;;;;;;;;;12.30;99.90;;;;;;5135368;27;19907;-44
2023/09/30 00:50:57;;;;;;;;;;;12.40;99.90;;;;;;5135386;27;19907;-43
2023/09/30 00:53:23;;;;;;;;;;;12.40;99.90;;;;;;5135288;27;20285;-43
2023/09/30 00:55:49;;;;;;;;;;;12.40;99.90;;;;;;5135173;27;20387;-44
2023/09/30 00:58:15;;;;;;;;;;;12.40;99.90;;;;;;5135198;27;19971;-44
2023/09/30 01:00:40;;;;;;;;;;;12.40;99.90;;;;;;5135010;27;19957;-44
2023/09/30 01:03:06;;;;;;;;;;;12.40;99.90;;;;;;5135033;27;19922;-44
2023/09/30 01:05:32;;;;;;;;;;;12.40;99.90;;;;;;5134871;27;20362;-44
2023/09/30 01:07:57;;;;;;;;;;;12.40;99.90;;;;;;5134945;27;19908;-43
2023/09/30 01:10:23;;;;;;;;;;;12.40;99.90;;;;;;5134833;27;19914;-44
2023/09/30 01:12:48;;;;;;;;;;;12.30;99.90;;;;;;5133938;27;19915;-45
2023/09/30 01:15:14;;;;;;;;;;;12.40;99.90;;;;;;5134836;27;19908;-44
2023/09/30 01:17:39;;;;;;;;;;;12.30;99.90;;;;;;5134706;27;19911;-45
2023/09/30 01:20:06;;;;;;;;;;;12.30;99.90;;;;;;5134760;27;19915;-44
2023/09/30 01:22:32;;;;;;;;;;;12.30;99.90;;;;;;5134534;27;20366;-44
2023/09/30 01:24:58;;;;;;;;;;;12.30;99.90;;;;;;5134629;27;19911;-43
2023/09/30 01:27:25;;;;;;;;;;;12.20;99.90;;;;;;5134410;27;19914;-44
2023/09/30 01:29:50;;;;;;;;;;;12.20;99.90;;;;;;5150118;27;19918;-43
2023/09/30 01:32:16;;;;;;;;;;;12.20;99.90;;;;;;5154850;27;19915;-44
2023/09/30 01:34:42;;;;;;;;;;;12.20;99.90;;;;;;5154821;27;19925;-43
2023/09/30 01:37:07;;;;;;;;;;;12.20;99.90;;;;;;5155233;27;19907;-44
2023/09/30 01:39:33;;;;;;;;;;;12.20;99.90;;;;;;5155058;27;19907;-43
2023/09/30 01:41:59;;;;;;;;;;;12.20;99.90;;;;;;5155030;27;19911;-44
2023/09/30 01:44:25;;;;;;;;;;;12.20;99.90;;;;;;5155113;27;19915;-44
2023/09/30 01:46:51;;;;;;;;;;;12.20;99.90;;;;;;5154967;27;19907;-44
2023/09/30 01:49:18;;;;;;;;;;;12.20;99.90;;;;;;5154985;27;19963;-44
2023/09/30 01:51:43;;;;;;;;;;;12.20;99.90;;;;;;5154494;27;19911;-43
2023/09/30 01:54:10;;;;;;;;;;;12.10;99.90;;;;;;5152966;27;20381;-44
2023/09/30 01:56:36;;;;;;;;;;;12.10;99.90;;;;;;5154392;27;19915;-44
2023/09/30 01:59:01;;;;;;;;;;;12.10;99.90;;;;;;5154877;27;20055;-45
2023/09/30 02:01:27;;;;;;;;;;;12.10;99.90;;;;;;5154747;27;20279;-43
2023/09/30 02:03:53;;;;;;;;;;;12.10;99.90;;;;;;5154605;27;19918;-44
2023/09/30 02:06:18;;;;;;;;;;;12.10;99.90;;;;;;5154614;27;19908;-44
2023/09/30 02:08:44;;;;;;;;;;;12.10;99.90;;;;;;5154680;27;19907;-44
2023/09/30 02:11:10;;;;;;;;;;;12.10;99.90;;;;;;5154293;27;19918;-44
2023/09/30 02:13:36;;;;;;;;;;;12.10;99.90;;;;;;5154473;27;19907;-43
2023/09/30 02:16:01;;;;;;;;;;;12.10;99.90;;;;;;5154687;27;20010;-43
2023/09/30 02:18:27;;;;;;;;;;;12.00;99.90;;;;;;5154497;27;19942;-43
2023/09/30 02:20:53;;;;;;;;;;;12.10;99.90;;;;;;5154224;27;19911;-44
2023/09/30 02:23:19;;;;;;;;;;;12.00;99.90;;;;;;5154133;27;19963;-44
2023/09/30 02:25:44;;;;;;;;;;;12.00;99.90;;;;;;5154337;27;19910;-45
2023/09/30 02:28:10;;;;;;;;;;;12.00;99.90;;;;;;5154514;27;19907;-44
2023/09/30 02:30:36;;;;;;;;;;;12.00;99.90;;;;;;5153922;27;20271;-44
2023/09/30 02:33:03;;;;;;;;;;;12.00;99.90;;;;;;5154276;27;19907;-44
2023/09/30 02:35:28;;;;;;;;;;;12.10;99.90;;;;;;5154369;27;19907;-44
2023/09/30 02:37:54;;;;;;;;;;;12.10;99.90;;;;;;5154483;27;20362;-44
2023/09/30 02:40:19;;;;;;;;;;;12.10;99.90;;;;;;5154258;27;20314;-44
2023/09/30 02:42:45;;;;;;;;;;;12.10;99.90;;;;;;5154207;27;19907;-44
2023/09/30 02:45:11;;;;;;;;;;;12.10;99.90;;;;;;5154337;27;19915;-43
2023/09/30 02:47:37;;;;;;;;;;;12.00;99.90;;;;;;5154105;27;20002;-44
2023/09/30 02:50:04;;;;;;;;;;;12.00;99.90;;;;;;5154560;27;20001;-45
2023/09/30 02:52:30;;;;;;;;;;;12.00;99.90;;;;;;5154003;27;19911;-43
2023/09/30 02:54:57;;;;;;;;;;;12.00;99.90;;;;;;5154311;27;19911;-44
2023/09/30 02:57:23;;;;;;;;;;;12.00;99.90;;;;;;5154038;27;20369;-44
2023/09/30 02:59:48;;;;;;;;;;;12.00;99.90;;;;;;5154196;27;19907;-44
2023/09/30 03:02:15;;;;;;;;;;;12.00;99.90;;;;;;5137456;27;19911;-45
2023/09/30 03:04:41;;;;;;;;;;;11.90;99.90;;;;;;5133132;28;19938;-43
2023/09/30 03:07:07;;;;;;;;;;;12.00;99.90;;;;;;5133470;28;19912;-44
2023/09/30 03:09:32;;;;;;;;;;;12.00;99.90;;;;;;5133206;27;20026;-44
2023/09/30 03:11:59;;;;;;;;;;;12.00;99.90;;;;;;5133347;28;19907;-44
2023/09/30 03:14:25;;;;;;;;;;;12.00;99.90;;;;;;5133234;28;20282;-43
2023/09/30 03:16:50;;;;;;;;;;;12.00;99.90;;;;;;5133418;28;19908;-44
2023/09/30 03:19:17;;;;;;;;;;;12.00;99.90;;;;;;5133434;28;20002;-45
2023/09/30 03:21:42;;;;;;;;;;;12.00;99.90;;;;;;5133047;28;19908;-43
2023/09/30 03:24:08;;;;;;;;;;;12.00;99.90;;;;;;5133258;28;19915;-44
2023/09/30 03:26:33;;;;;;;;;;;12.00;99.90;;;;;;5133115;28;20427;-44
2023/09/30 03:28:59;;;;;;;;;;;12.00;99.90;;;;;;5133126;28;19915;-44
2023/09/30 03:31:25;;;;;;;;;;;12.00;99.90;;;;;;5141074;27;19911;-46
2023/09/30 03:33:53;;;;;;;;;;;12.10;99.90;;;;;;5153472;27;19919;-43
2023/09/30 03:36:20;;;;;;;;;;;12.00;99.90;;;;;;5155569;27;19954;-44
2023/09/30 03:38:45;;;;;;;;;;;12.00;99.90;;;;;;5157512;27;20372;-44
2023/09/30 03:41:12;;;;;;;;;;;12.00;99.90;;;;;;5136811;27;19912;-44
2023/09/30 03:43:40;;;;;;;;;;;12.00;99.90;;;;;;5136450;27;19918;-45
2023/09/30 03:46:09;;;;;;;;;;;12.00;99.90;;;;;;5136570;27;20394;-43
2023/09/30 03:48:39;;;;;;;;;;;12.00;99.90;;;;;;5136442;27;20350;-43
2023/09/30 03:51:24;;;;;;;;;;;12.00;99.90;;;;;;5136435;27;20368;-44
2023/09/30 03:53:50;;;;;;;;;;;12.00;99.90;;;;;;5136638;27;19923;-45
2023/09/30 03:56:16;;;;;;;;;;;12.00;99.90;;;;;;5136404;27;19915;-45
2023/09/30 03:58:44;;;;;;;;;;;12.00;99.90;;;;;;5136288;27;19915;-44
2023/09/30 04:01:19;;;;;;;;;;;12.00;99.90;;;;;;5135923;27;19964;-45
2023/09/30 04:03:45;;;;;;;;;;;11.90;99.90;;;;;;5136182;27;19942;-45
2023/09/30 04:06:11;;;;;;;;;;;11.90;99.90;;;;;;5136175;27;20350;-43
2023/09/30 04:08:36;;;;;;;;;;;11.90;99.90;;;;;;5136145;27;19911;-44
2023/09/30 04:11:03;;;;;;;;;;;11.90;99.90;;;;;;5154526;27;20385;-45
2023/09/30 04:13:29;;;;;;;;;;;11.80;99.90;;;;;;5156682;27;20445;-44
2023/09/30 04:15:55;;;;;;;;;;;11.80;99.90;;;;;;5156748;27;19914;-44
2023/09/30 04:18:22;;;;;;;;;;;11.80;99.90;;;;;;5156688;27;19908;-41
2023/09/30 04:20:48;;;;;;;;;;;11.90;99.90;;;;;;5156675;27;19907;-41
2023/09/30 04:23:15;;;;;;;;;;;11.90;99.90;;;;;;5156546;27;19915;-42
2023/09/30 04:25:40;;;;;;;;;;;11.90;99.90;;;;;;5156539;27;20372;-41
2023/09/30 04:28:07;;;;;;;;;;;12.00;99.90;;;;;;5156550;27;19976;-42
2023/09/30 04:30:32;;;;;;;;;;;12.00;99.90;;;;;;5156389;27;19914;-43
2023/09/30 04:33:01;;;;;;;;;;;12.00;99.90;;;;;;5156298;27;20002;-41
2023/09/30 04:35:26;;;;;;;;;;;12.10;99.90;;;;;;5156419;27;19911;-42
2023/09/30 04:37:52;;;;;;;;;;;12.10;99.90;;;;;;5156413;27;19907;-41
2023/09/30 04:40:19;;;;;;;;;;;12.10;99.90;;;;;;5144573;27;19998;-42
2023/09/30 04:42:46;;;;;;;;;;;12.10;99.90;;;;;;5135418;27;20404;-44
2023/09/30 04:45:21;;;;;;;;;;;12.10;99.90;;;;;;5135406;27;19964;-43
2023/09/30 04:47:48;;;;;;;;;;;12.10;99.90;;;;;;5135300;27;19950;-44
2023/09/30 04:50:16;;;;;;;;;;;12.00;99.90;;;;;;5135413;27;19960;-44
2023/09/30 04:52:42;;;;;;;;;;;12.00;99.90;;;;;;5135276;27;19915;-44
2023/09/30 04:55:12;;;;;;;;;;;12.00;99.90;;;;;;5135280;27;20001;-45
2023/09/30 04:57:37;;;;;;;;;;;12.00;99.90;;;;;;5134698;27;20385;-46
2023/09/30 05:00:10;;;;;;;;;;;12.00;99.90;;;;;;5129393;27;19918;-46
2023/09/30 05:02:36;;;;;;;;;;;12.00;99.90;;;;;;5120086;27;19919;-46
2023/09/30 05:05:01;;;;;;;;;;;12.00;99.90;;;;;;5132284;27;20289;-44
2023/09/30 05:07:28;;;;;;;;;;;11.90;99.90;;;;;;5130285;27;19915;-45
2023/09/30 05:09:54;;;;;;;;;;;11.90;99.90;;;;;;5134445;27;19911;-45
2023/09/30 05:12:20;;;;;;;;;;;11.90;99.90;;;;;;5134056;27;19914;-44
2023/09/30 05:14:45;;;;;;;;;;;11.90;99.90;;;;;;5133727;27;19911;-44
2023/09/30 05:17:11;;;;;;;;;;;11.80;99.90;;;;;;5133629;27;19915;-44
2023/09/30 05:19:37;;;;;;;;;;;11.90;99.90;;;;;;5134679;27;20018;-44
2023/09/30 05:22:03;;;;;;;;;;;11.80;99.90;;;;;;5134172;27;20389;-45
2023/09/30 05:24:29;;;;;;;;;;;11.90;99.90;;;;;;5133608;27;19915;-45
2023/09/30 05:26:54;;;;;;;;;;;11.90;99.90;;;;;;5133956;27;19907;-44
2023/09/30 05:29:20;;;;;;;;;;;11.90;99.90;;;;;;5133880;27;19913;-45
2023/09/30 05:31:46;;;;;;;;;;;11.90;99.90;;;;;;5133561;27;19907;-46
2023/09/30 05:34:11;;;;;;;;;;;11.90;99.90;;;;;;5134177;27;19971;-45
2023/09/30 05:36:37;;;;;;;;;;;11.90;99.90;;;;;;5141927;27;20421;-46
2023/09/30 05:39:03;;;;;;;;;;;12.00;99.90;;;;;;5144023;27;19907;-45
2023/09/30 05:41:29;;;;;;;;;;;12.00;99.90;;;;;;5142157;27;19915;-46
2023/09/30 05:43:55;;;;;;;;;;;12.00;99.90;;;;;;5140160;27;20389;-46
2023/09/30 05:46:21;;;;;;;;;;;12.00;99.90;;;;;;5144085;27;19907;-45
2023/09/30 05:48:46;;;;;;;;;;;12.00;99.90;;;;;;5144626;27;20006;-45
2023/09/30 05:51:15;;;;;;;;;;;12.00;99.90;;;;;;5143389;27;19946;-45
2023/09/30 05:53:41;;;;;;;;;;;12.00;99.90;;;;;;5143481;27;19989;-45
2023/09/30 05:56:07;;;;;;;;;;;12.00;99.90;;;;;;5143216;27;19907;-46
2023/09/30 05:58:32;;;;;;;;;;;12.00;99.90;;;;;;5144127;27;19914;-47
2023/09/30 06:00:58;;;;;;;;;;;12.00;99.90;;;;;;5146191;27;19915;-44
2023/09/30 06:03:24;;;;;;;;;;;12.10;99.90;;;;;;5143032;27;19964;-44
2023/09/30 06:05:49;;;;;;;;;;;12.10;99.90;;;;;;5144004;27;19911;-45
2023/09/30 06:08:14;;;;;;;;;;;12.10;99.90;;;;;;5134523;27;19911;-45
2023/09/30 06:10:42;;;;;;;;;;;12.00;99.90;;;;;;5129088;27;19912;-45
2023/09/30 06:13:08;;;;;;;;;;;12.10;99.90;;;;;;5122248;27;20027;-46
2023/09/30 06:15:36;;;;;;;;;;;12.10;99.90;;;;;;5122258;27;20359;-45
2023/09/30 06:18:04;;;;;;;;;;;12.00;99.90;;;;;;5118154;27;19911;-44
2023/09/30 06:20:30;;;;;;;;;;;12.10;99.90;;;;;;5133690;27;19907;-45
2023/09/30 06:22:56;;;;;;;;;;;12.10;99.90;;;;;;5130870;27;19914;-47
2023/09/30 06:25:23;;;;;;;;;;;12.00;99.90;;;;;;5113162;28;19908;-45
2023/09/30 06:27:50;;;;;;;;;;;12.00;99.90;;;;;;5113123;28;19908;-46
2023/09/30 06:30:15;;;;;;;;;;;12.00;99.90;;;;;;5123544;27;19919;-46
2023/09/30 06:32:41;;;;;;;;;;;12.00;99.90;;;;;;5137738;27;19918;-45
2023/09/30 06:35:10;;;;;;;;;;;12.00;99.90;;;;;;5124875;27;20106;-45
2023/09/30 06:37:39;;;;;;;;;;;12.00;99.90;;;;;;5133232;27;19919;-45
2023/09/30 06:40:07;;;;;;;;;;;12.10;99.90;;;;;;5141619;27;19911;-46
2023/09/30 06:42:33;;;;;;;;;;;12.10;99.90;;;;;;5130502;28;19907;-47
2023/09/30 06:44:59;;;;;;;;;;;12.10;99.90;;;;;;5132768;28;20365;-46
2023/09/30 06:47:24;;;;;;;;;;;12.10;99.90;;;;;;5136039;27;19954;-46
2023/09/30 06:49:50;;;;;;;;;;;12.10;99.90;;;;;;5138983;27;19963;-45
2023/09/30 06:52:15;;;;;;;;;;;12.10;99.90;;;;;;5143923;27;19947;-46
2023/09/30 06:54:41;;;;;;;;;;;12.10;99.90;;;;;;5142352;27;19912;-46
2023/09/30 06:57:08;;;;;;;;;;;12.10;99.90;;;;;;5134823;27;19919;-46
2023/09/30 06:59:33;;;;;;;;;;;12.20;99.90;;;;;;5145115;27;20391;-45
2023/09/30 07:01:59;;;;;;;;;;;12.20;99.90;;;;;;5133463;28;19907;-45
2023/09/30 07:04:26;;;;;;;;;;;12.20;99.90;;;;;;5133301;27;20396;-45
2023/09/30 07:06:54;;;;;;;;;;;12.30;99.90;;;;;;5121273;28;19917;-45
2023/09/30 07:09:20;;;;;;;;;;;12.30;99.90;;;;;;5133359;27;19907;-46
2023/09/30 07:11:45;;;;;;;;;;;12.40;99.90;;;;;;5139344;27;20389;-45
2023/09/30 07:14:11;;;;;;;;;;;12.40;99.90;;;;;;5137320;27;20389;-45
2023/09/30 07:16:36;;;;;;;;;;;12.50;99.90;;;;;;5133533;27;19911;-46
2023/09/30 07:19:02;;;;;;;;;;;12.50;99.90;;;;;;5128729;27;19911;-45
2023/09/30 07:21:28;;;;;;;;;;;12.50;99.90;;;;;;5136954;27;19966;-45
2023/09/30 07:23:53;;;;;;;;;;;12.60;99.90;;;;;;5136183;27;20362;-45
2023/09/30 07:26:24;;;;;;;;;;;12.60;99.90;;;;;;5131084;27;19918;-45
2023/09/30 07:28:49;;;;;;;;;;;12.70;99.90;;;;;;5136948;27;20294;-45
2023/09/30 07:31:14;;;;;;;;;;;12.70;99.90;;;;;;5136983;27;19914;-45
2023/09/30 07:33:40;;;;;;;;;;;12.80;99.90;;;;;;5149571;27;20634;-45
2023/09/30 07:36:05;;;;;;;;;;;12.80;99.90;;;;;;5157194;27;19917;-45
2023/09/30 07:38:31;;;;;;;;;;;12.90;99.90;;;;;;5157584;27;20409;-45
2023/09/30 07:40:56;;;;;;;;;;;13.00;99.90;;;;;;5157565;27;20262;-47
2023/09/30 07:43:22;;;;;;;;;;;13.10;99.90;;;;;;5157276;27;20001;-45
2023/09/30 07:45:47;;;;;;;;;;;13.20;99.90;;;;;;5157360;27;20011;-46
2023/09/30 07:48:14;;;;;;;;;;;13.20;99.90;;;;;;5157334;27;19907;-45
2023/09/30 07:50:39;;;;;;;;;;;13.30;99.90;;;;;;5157231;27;19911;-45
2023/09/30 07:53:05;;;;;;;;;;;13.30;99.90;;;;;;5157339;27;19914;-45
2023/09/30 07:55:30;;;;;;;;;;;13.40;99.90;;;;;;5157158;27;19913;-45
2023/09/30 07:57:57;;;;;;;;;;;13.50;99.90;;;;;;5147787;27;19926;-45
2023/09/30 08:00:23;;;;;;;;;;;13.60;99.90;;;;;;5132959;27;19918;-45
2023/09/30 08:02:50;;;;;;;;;;;13.60;99.90;;;;;;5135618;27;19912;-46
2023/09/30 08:05:15;;;;;;;;;;;13.70;99.90;;;;;;5123094;27;19920;-46
2023/09/30 08:07:41;;;;;;;;;;;13.80;99.90;;;;;;5115205;28;20385;-45
2023/09/30 08:10:12;;;;;;;;;;;13.90;99.90;;;;;;5113406;28;20370;-46
2023/09/30 08:12:37;;;;;;;;;;;13.90;99.90;;;;;;5113478;28;20408;-48
2023/09/30 08:15:03;;;;;;;;;;;14.00;99.90;;;;;;5125697;27;19947;-45
2023/09/30 08:17:28;;;;;;;;;;;14.10;99.90;;;;;;5120309;27;19914;-45
2023/09/30 08:19:54;;;;;;;;;;;14.10;99.90;;;;;;5115484;28;19977;-45
2023/09/30 08:22:19;;;;;;;;;;;14.20;99.90;;;;;;5125414;27;19911;-45
2023/09/30 08:24:45;;;;;;;;;;;14.30;99.90;;;;;;5132385;27;20396;-46
2023/09/30 08:27:10;;;;;;;;;;;14.40;99.90;;;;;;5139521;27;19919;-46
2023/09/30 08:29:36;;;;;;;;;;;14.50;99.90;;;;;;5133344;27;19965;-47
2023/09/30 08:32:02;;;;;;;;;;;14.50;99.90;;;;;;5134971;27;19994;-45
2023/09/30 08:34:28;;;;;;;;;;;14.70;99.90;;;;;;5135299;27;19928;-45
2023/09/30 08:36:54;;;;;;;;;;;14.80;99.90;;;;;;5135571;27;19915;-45
2023/09/30 08:39:19;;;;;;;;;;;14.80;99.90;;;;;;5135618;27;19915;-45
2023/09/30 08:41:45;;;;;;;;;;;15.00;99.90;;;;;;5135678;27;19915;-46
2023/09/30 08:44:11;;;;;;;;;;;15.10;99.90;;;;;;5135446;27;19916;-45
2023/09/30 08:46:36;;;;;;;;;;;15.10;99.90;;;;;;5135382;27;19914;-46
2023/09/30 08:49:03;;;;;;;;;;;15.20;99.90;;;;;;5135474;27;19908;-45
2023/09/30 08:51:28;;;;;;;;;;;15.30;99.90;;;;;;5135298;27;19934;-45
2023/09/30 08:53:56;;;;;;;;;;;15.40;99.90;;;;;;5135440;27;20333;-47
2023/09/30 08:56:26;;;;;;;;;;;15.50;99.90;;;;;;5135154;27;19911;-45
2023/09/30 08:58:52;;;;;;;;;;;15.50;99.90;;;;;;5135236;27;20328;-45
2023/09/30 09:01:18;;;;;;;;;;;15.60;99.90;;;;;;5135038;27;19907;-46
2023/09/30 09:03:43;;;;;;;;;;;15.70;99.90;;;;;;5135028;27;19930;-47
2023/09/30 09:06:09;;;;;;;;;;;15.80;99.90;;;;;;5135162;27;20366;-45
2023/09/30 09:08:34;;;;;;;;;;;15.90;99.90;;;;;;5134946;27;20380;-45
2023/09/30 09:11:02;;;;;;;;;;;15.90;99.90;;;;;;5135074;27;19908;-46
2023/09/30 09:13:28;;;;;;;;;;;16.00;99.90;;;;;;5134918;27;19915;-45
2023/09/30 09:16:06;;;;;;;;;;;16.10;99.90;;;;;;5134813;27;19960;-45
2023/09/30 09:18:38;;;;;;;;;;;16.10;99.90;;;;;;5134755;27;19953;-46
2023/09/30 09:21:14;;;;;;;;;;;16.20;99.90;;;;;;5134931;27;19907;-45
2023/09/30 09:23:43;;;;;;;;;;;16.30;99.90;;;;;;5134663;27;19919;-46
2023/09/30 09:26:10;;;;;;;;;;;16.40;99.90;;;;;;5136632;27;20373;-45
2023/09/30 09:28:39;;;;;;;;;;;16.50;99.90;;;;;;5155302;27;20366;-46
2023/09/30 09:31:23;;;;;;;;;;;16.60;99.90;;;;;;5127654;27;19911;-45
2023/09/30 09:33:49;;;;;;;;;;;16.60;99.90;;;;;;5120972;27;19919;-45
2023/09/30 09:36:15;;;;;;;;;;;16.70;99.90;;;;;;5140137;27;19911;-45
2023/09/30 09:38:53;;;;;;;;;;;16.80;99.90;;;;;;5130782;27;19911;-45
2023/09/30 09:41:19;;;;;;;;;;;16.80;99.90;;;;;;5135618;27;20010;-45
2023/09/30 09:43:45;;;;;;;;;;;16.90;99.90;;;;;;5130360;27;19981;-47
2023/09/30 09:46:11;;;;;;;;;;;16.90;99.90;;;;;;5133988;27;19908;-45
2023/09/30 09:48:37;;;;;;;;;;;17.00;99.90;;;;;;5133589;27;20366;-46
2023/09/30 09:51:07;;;;;;;;;;;17.00;99.90;;;;;;5132874;27;20370;-45
2023/09/30 09:53:38;;;;;;;;;;;17.10;99.90;;;;;;5133803;27;19919;-45
2023/09/30 09:56:05;;;;;;;;;;;17.10;99.90;;;;;;5134175;27;20385;-44
2023/09/30 09:58:33;;;;;;;;;;;17.20;99.90;;;;;;5132713;27;19935;-45
2023/09/30 10:01:00;;;;;;;;;;;17.20;99.90;;;;;;5132417;27;19911;-45
2023/09/30 10:03:26;;;;;;;;;;;17.30;99.90;;;;;;5132234;27;20070;-47
2023/09/30 10:05:52;;;;;;;;;;;17.40;99.90;;;;;;5130010;27;19955;-45
2023/09/30 10:08:19;;;;;;;;;;;17.40;99.90;;;;;;5133690;27;19911;-44
2023/09/30 10:10:45;;;;;;;;;;;17.40;99.90;;;;;;5127599;27;19989;-46
2023/09/30 10:13:30;;;;;;;;;;;17.40;99.90;;;;;;5128807;27;20342;-45
2023/09/30 10:15:56;;;;;;;;;;;17.50;99.90;;;;;;5131769;27;19916;-46
2023/09/30 10:18:21;;;;;;;;;;;17.50;99.90;;;;;;5126022;27;20065;-45
2023/09/30 10:20:48;;;;;;;;;;;17.60;99.90;;;;;;5116584;27;20377;-45
2023/09/30 10:23:33;;;;;;;;;;;17.70;99.90;;;;;;5122891;27;20022;-45
2023/09/30 10:26:07;;;;;;;;;;;17.70;99.90;;;;;;5113901;28;19985;-46
2023/09/30 10:28:40;;;;;;;;;;;17.90;99.90;;;;;;5127363;28;20281;-46
2023/09/30 10:31:16;;;;;;;;;;;17.90;99.90;;;;;;5134416;28;19908;-45
2023/09/30 10:34:00;;;;;;;;;;;18.00;99.90;;;;;;5131836;27;19927;-45
2023/09/30 10:36:27;;;;;;;;;;;18.10;99.90;;;;;;5113520;28;19908;-45
2023/09/30 10:38:53;;;;;;;;;;;18.20;99.90;;;;;;5119447;28;19911;-46
2023/09/30 10:41:37;;;;;;;;;;;18.30;99.90;;;;;;5135904;27;21888;-46
2023/09/30 10:44:22;;;;;;;;;;;18.50;99.90;;;;;;5147311;27;19919;-45
2023/09/30 10:46:48;;;;;;;;;;;18.60;99.90;;;;;;5138217;27;19915;-45
2023/09/30 10:49:35;;;;;;;;;;;18.80;99.90;;;;;;5138167;27;19951;-45
2023/09/30 10:52:01;;;;;;;;;;;18.90;99.90;;;;;;5147503;27;19996;-45
2023/09/30 10:54:27;;;;;;;;;;;18.90;99.90;;;;;;5147619;27;20398;-47
2023/09/30 10:56:53;;;;;;;;;;;19.00;99.90;;;;;;5137939;27;19930;-46
2023/09/30 10:59:19;;;;;;;;;;;19.10;99.90;;;;;;5138011;27;20219;-45
2023/09/30 11:01:45;;;;;;;;;;;19.10;99.90;;;;;;5137422;27;19954;-49
2023/09/30 11:04:11;;;;;;;;;;;19.10;99.90;;;;;;5137736;27;19915;-45
2023/09/30 11:06:39;;;;;;;;;;;19.20;99.90;;;;;;5137736;27;19915;-46
2023/09/30 11:09:08;;;;;;;;;;;19.30;99.90;;;;;;5137604;27;19958;-45
2023/09/30 11:11:39;;;;;;;;;;;19.20;99.90;;;;;;5137298;27;19937;-47
2023/09/30 11:14:23;;;;;;;;;;;19.00;99.90;;;;;;5137176;27;19936;-46
2023/09/30 11:16:50;;;;;;;;;;;18.70;99.90;;;;;;5137662;27;20036;-49
2023/09/30 11:19:15;;;;;;;;;;;18.50;99.90;;;;;;5133088;27;20003;-45
2023/09/30 11:21:43;;;;;;;;;;;18.30;99.90;;;;;;5137487;27;19943;-46
2023/09/30 11:24:08;;;;;;;;;;;18.30;99.90;;;;;;5137560;27;19926;-46
2023/09/30 11:26:34;;;;;;;;;;;18.40;99.90;;;;;;5135837;27;20258;-45
2023/09/30 11:29:06;;;;;;;;;;;18.50;99.90;;;;;;5137494;27;19957;-46
2023/09/30 11:31:33;;;;;;;;;;;18.60;99.90;;;;;;5137249;27;19908;-45
2023/09/30 11:34:03;;;;;;;;;;;18.80;99.90;;;;;;5134319;27;19955;-46
2023/09/30 11:36:29;;;;;;;;;;;18.80;99.90;;;;;;5135682;27;19976;-45
2023/09/30 11:38:54;;;;;;;;;;;18.90;99.90;;;;;;5137264;27;19911;-46
2023/09/30 11:41:21;;;;;;;;;;;19.00;99.90;;;;;;5136980;27;20358;-47
2023/09/30 11:44:07;;;;;;;;;;;19.10;99.90;;;;;;5135873;27;20381;-46
2023/09/30 11:46:57;;;;;;;;;;;19.10;99.90;;;;;;5135725;27;19907;-46
2023/09/30 11:49:29;;;;;;;;;;;19.10;99.90;;;;;;5128230;27;19968;-45
2023/09/30 11:51:58;;;;;;;;;;;19.00;99.90;;;;;;5131792;27;19916;-46
2023/09/30 11:54:34;;;;;;;;;;;18.90;99.90;;;;;;5124128;27;20600;-45
2023/09/30 11:57:03;;;;;;;;;;;18.90;99.90;;;;;;5129706;27;19911;-46
2023/09/30 11:59:29;;;;;;;;;;;18.90;99.90;;;;;;5131747;27;19915;-45
2023/09/30 12:01:54;;;;;;;;;;;19.00;99.90;;;;;;5115259;27;20370;-46
2023/09/30 12:04:20;;;;;;;;;;;19.00;99.90;;;;;;5117124;27;19926;-45
2023/09/30 12:06:47;;;;;;;;;;;18.90;99.90;;;;;;5137957;27;19911;-46
2023/09/30 12:09:14;;;;;;;;;;;18.90;99.90;;;;;;5133429;27;19923;-45
2023/09/30 12:11:43;;;;;;;;;;;18.80;99.90;;;;;;5127703;27;19976;-46
2023/09/30 12:14:12;;;;;;;;;;;18.80;99.90;;;;;;5128252;27;19922;-45
2023/09/30 12:16:38;;;;;;;;;;;18.90;99.90;;;;;;5134475;27;19912;-44
2023/09/30 12:19:05;;;;;;;;;;;19.00;99.90;;;;;;5126847;27;20274;-44
2023/09/30 12:21:31;;;;;;;;;;;19.00;99.90;;;;;;5117563;27;19911;-46
2023/09/30 12:23:57;;;;;;;;;;;19.10;99.90;;;;;;5120085;27;19924;-45
2023/09/30 12:26:22;;;;;;;;;;;19.30;99.90;;;;;;5125465;27;19911;-44
2023/09/30 12:28:48;;;;;;;;;;;19.50;99.90;;;;;;5128502;27;19920;-44
2023/09/30 12:31:13;;;;;;;;;;;19.70;99.90;;;;;;5130859;27;19911;-45
2023/09/30 12:33:40;;;;;;;;;;;19.80;99.90;;;;;;5119548;27;20661;-45
2023/09/30 12:36:05;;;;;;;;;;;19.90;99.90;;;;;;5107003;28;19918;-45
2023/09/30 12:38:31;;;;;;;;;;;20.00;99.90;;;;;;5114617;28;19912;-45
2023/09/30 12:40:57;;;;;;;;;;;20.10;99.90;;;;;;5113575;28;20391;-46
2023/09/30 12:43:22;;;;;;;;;;;20.10;99.90;;;;;;5109486;28;19916;-46
2023/09/30 12:45:48;;;;;;;;;;;20.10;99.90;;;;;;5114285;28;19918;-44
2023/09/30 12:48:14;;;;;;;;;;;20.20;99.90;;;;;;5114478;28;19912;-45
2023/09/30 12:50:40;;;;;;;;;;;20.20;99.90;;;;;;5112823;28;19961;-45
2023/09/30 12:53:05;;;;;;;;;;;20.40;99.90;;;;;;5114788;28;19941;-46
2023/09/30 12:55:31;;;;;;;;;;;20.50;99.90;;;;;;5108684;28;20294;-46
2023/09/30 12:57:56;;;;;;;;;;;20.60;99.90;;;;;;5102654;27;19912;-46
2023/09/30 13:00:22;;;;;;;;;;;20.60;99.90;;;;;;5099764;28;20001;-46
2023/09/30 13:02:48;;;;;;;;;;;20.60;99.90;;;;;;5113495;28;19911;-45
2023/09/30 13:05:16;;;;;;;;;;;20.60;99.90;;;;;;5115022;28;19922;-45
2023/09/30 13:07:42;;;;;;;;;;;20.60;99.90;;;;;;5114702;28;20350;-47
2023/09/30 13:10:08;;;;;;;;;;;20.60;99.90;;;;;;5113581;28;19919;-47
2023/09/30 13:12:33;;;;;;;;;;;20.80;99.90;;;;;;5112510;28;20420;-46
2023/09/30 13:14:59;;;;;;;;;;;20.90;99.90;;;;;;5105640;28;20418;-46
2023/09/30 13:17:25;;;;;;;;;;;21.00;99.90;;;;;;5094711;28;19908;-45
2023/09/30 13:19:51;;;;;;;;;;;21.20;99.90;;;;;;5094611;28;19931;-47
2023/09/30 13:22:17;;;;;;;;;;;21.50;99.90;;;;;;5094450;28;19908;-46
2023/09/30 13:24:42;;;;;;;;;;;21.80;99.90;;;;;;5096519;28;19924;-45
2023/09/30 13:27:08;;;;;;;;;;;22.10;99.90;;;;;;5105522;27;20146;-46
2023/09/30 13:29:33;;;;;;;;;;;22.40;99.40;;;;;;5125875;27;19919;-45
2023/09/30 13:31:59;;;;;;;;;;;22.50;99.90;;;;;;5112754;28;20041;-46
2023/09/30 13:34:25;;;;;;;;;;;22.50;96.90;;;;;;5102365;27;19952;-48
2023/09/30 13:36:50;;;;;;;;;;;22.50;99.70;;;;;;5095676;28;19918;-46
2023/09/30 13:39:17;;;;;;;;;;;22.30;99.40;;;;;;5093788;28;19908;-45
2023/09/30 13:41:43;;;;;;;;;;;22.10;98.40;;;;;;5099732;28;19966;-46
2023/09/30 13:44:08;;;;;;;;;;;21.80;99.90;;;;;;5104344;28;19943;-47
2023/09/30 13:46:34;;;;;;;;;;;21.80;99.90;;;;;;5112765;28;19912;-47
2023/09/30 13:48:59;;;;;;;;;;;22.10;99.90;;;;;;5114140;28;20090;-46
2023/09/30 13:51:26;;;;;;;;;;;22.60;99.90;;;;;;5113750;28;20002;-46
2023/09/30 13:53:53;;;;;;;;;;;22.90;99.90;;;;;;5113712;28;19908;-46
2023/09/30 13:56:18;;;;;;;;;;;23.10;98.70;;;;;;5113723;28;19912;-45
2023/09/30 13:58:44;;;;;;;;;;;23.30;98.20;;;;;;5131124;27;20374;-46
2023/09/30 14:01:10;;;;;;;;;;;23.40;99.90;;;;;;5134022;27;19998;-47
2023/09/30 14:03:36;;;;;;;;;;;23.60;99.70;;;;;;5133902;27;19968;-45
2023/09/30 14:06:01;;;;;;;;;;;23.70;97.90;;;;;;5133635;27;19911;-47
2023/09/30 14:08:27;;;;;;;;;;;23.80;97.60;;;;;;5133972;27;19911;-45
2023/09/30 14:10:52;;;;;;;;;;;23.90;96.90;;;;;;5133983;27;19911;-45
2023/09/30 14:13:18;;;;;;;;;;;24.00;98.70;;;;;;5133977;27;20032;-46
2023/09/30 14:15:44;;;;;;;;;;;24.30;96.30;;;;;;5133785;27;19912;-46